This is the latest recevied weather packets stored in our database for station/object WX4LTG. If no packets are shown the sender has not sent any weather packets the latest 1 day(s).
| Time | Temp. | Humidity | Pressure | Rain* | Wind** | Luminosity | Snow |
|---|---|---|---|---|---|---|---|
| 1778004434 | 23.33° C | 43% | 1011.5 hPa | 0 mm | 1.34 m/s, 281° | 775 W/m² | - |
| 1778004130 | 22.78° C | 45% | 1011.8 hPa | 0 mm | 0 m/s | 757 W/m² | - |
| 1778003826 | 21.67° C | 46% | 1011.8 hPa | 0 mm | 2.24 m/s, 269° | 730 W/m² | - |
| 1778003523 | 22.78° C | 45% | 1011.9 hPa | 0 mm | 1.34 m/s, 259° | 697 W/m² | - |
| 1778003220 | 22.78° C | 45% | 1012 hPa | 0 mm | 0.45 m/s, 144° | 685 W/m² | - |
| 1778002916 | 21.67° C | 47% | 1012 hPa | 0 mm | 0 m/s | 663 W/m² | - |
| 1778002613 | 22.22° C | 48% | 1012 hPa | 0 mm | 0.45 m/s, 260° | 658 W/m² | - |
| 1778002310 | 21.67° C | 47% | 1012 hPa | 0 mm | 0 m/s | 662 W/m² | - |
| 1778002007 | 21.67° C | 49% | 1012.1 hPa | 0 mm | 1.34 m/s, 204° | 699 W/m² | - |
| 1778001704 | 20.56° C | 52% | 1011.8 hPa | 0 mm | 0 m/s | 713 W/m² | - |
| 1778001403 | 20.56° C | 53% | 1012 hPa | 0 mm | 0 m/s | 691 W/m² | - |
| 1778001101 | 20.56° C | 55% | 1011.9 hPa | 0 mm | 1.34 m/s, 190° | 151 W/m² | - |
| 1778000798 | 20° C | 57% | 1012.1 hPa | 0 mm | 0 m/s | 646 W/m² | - |
| 1778000495 | 20° C | 58% | 1012.1 hPa | 0 mm | 1.79 m/s, 212° | 599 W/m² | - |
| 1778000194 | 20° C | 59% | 1012 hPa | 0 mm | 1.79 m/s, 228° | 587 W/m² | - |
| 1777999891 | 20° C | 62% | 1011.9 hPa | 0 mm | 2.24 m/s, 240° | 581 W/m² | - |
| 1777999586 | 19.44° C | 61% | 1012.2 hPa | 0 mm | 2.24 m/s, 219° | 600 W/m² | - |
| 1777999284 | 18.89° C | 67% | 1012.3 hPa | 0 mm | 0.45 m/s, 242° | 339 W/m² | - |
| 1777998982 | 17.78° C | 69% | 1012.1 hPa | 0 mm | 0 m/s | 197 W/m² | - |
| 1777998680 | 18.33° C | 69% | 1012.2 hPa | 1.27 mm | 0.89 m/s, 250° | 123 W/m² | - |
| 1777998377 | 18.89° C | 64% | 1012.2 hPa | 1.27 mm | 1.34 m/s, 242° | 61 W/m² | - |
| 1777998075 | 18.89° C | 64% | 1012.1 hPa | 0 mm | 0 m/s | 50 W/m² | - |
| 1777997772 | 18.89° C | 62% | 1011.9 hPa | 0 mm | 0 m/s | 51 W/m² | - |
| 1777997469 | 18.33° C | 66% | 1011.9 hPa | 0 mm | 0 m/s | 75 W/m² | - |
| 1777997166 | 19.44° C | 59% | 1012.1 hPa | 0 mm | 2.24 m/s, 255° | 42 W/m² | - |
* Rain latest hour (hover to see other rain measurements)
** Current wind speed in m/s (hover to see current wind gust speed)